sensor_id;sensor_type;location;lat;lon;timestamp;P1;durP1;ratioP1;P2;durP2;ratioP2
57947;SDS011;43754;56.992;24.292;2022-12-11T00:02:18;6.05;;;3.80;;
57947;SDS011;43754;56.992;24.292;2022-12-11T00:04:50;6.72;;;3.85;;
57947;SDS011;43754;56.992;24.292;2022-12-11T00:07:22;5.78;;;3.42;;
57947;SDS011;43754;56.992;24.292;2022-12-11T00:09:56;4.63;;;3.20;;
57947;SDS011;43754;56.992;24.292;2022-12-11T00:12:28;7.47;;;3.88;;
57947;SDS011;43754;56.992;24.292;2022-12-11T00:15:00;5.90;;;3.83;;
57947;SDS011;43754;56.992;24.292;2022-12-11T00:17:34;6.72;;;4.25;;
57947;SDS011;43754;56.992;24.292;2022-12-11T00:20:06;9.25;;;4.10;;
57947;SDS011;43754;56.992;24.292;2022-12-11T00:22:39;6.20;;;3.78;;
57947;SDS011;43754;56.992;24.292;2022-12-11T00:25:11;4.47;;;3.38;;
57947;SDS011;43754;56.992;24.292;2022-12-11T00:27:44;7.38;;;3.30;;
57947;SDS011;43754;56.992;24.292;2022-12-11T00:30:16;9.38;;;5.20;;
57947;SDS011;43754;56.992;24.292;2022-12-11T00:32:51;7.88;;;4.45;;
57947;SDS011;43754;56.992;24.292;2022-12-11T00:35:23;7.15;;;3.55;;
57947;SDS011;43754;56.992;24.292;2022-12-11T00:37:55;7.68;;;3.67;;
57947;SDS011;43754;56.992;24.292;2022-12-11T00:40:27;5.40;;;3.78;;
57947;SDS011;43754;56.992;24.292;2022-12-11T00:42:59;7.50;;;4.15;;
57947;SDS011;43754;56.992;24.292;2022-12-11T00:45:34;7.55;;;4.00;;
57947;SDS011;43754;56.992;24.292;2022-12-11T00:48:08;7.20;;;3.58;;
57947;SDS011;43754;56.992;24.292;2022-12-11T00:50:40;4.85;;;2.97;;
57947;SDS011;43754;56.992;24.292;2022-12-11T00:53:13;4.40;;;2.70;;
57947;SDS011;43754;56.992;24.292;2022-12-11T00:55:45;3.67;;;2.58;;
57947;SDS011;43754;56.992;24.292;2022-12-11T00:58:17;3.92;;;2.83;;
57947;SDS011;43754;56.992;24.292;2022-12-11T01:00:49;4.93;;;3.00;;
57947;SDS011;43754;56.992;24.292;2022-12-11T01:03:22;5.30;;;3.08;;
57947;SDS011;43754;56.992;24.292;2022-12-11T01:05:54;5.47;;;2.97;;
57947;SDS011;43754;56.992;24.292;2022-12-11T01:08:26;4.72;;;3.05;;
57947;SDS011;43754;56.992;24.292;2022-12-11T01:11:01;9.48;;;3.70;;
57947;SDS011;43754;56.992;24.292;2022-12-11T01:13:35;6.43;;;3.63;;
57947;SDS011;43754;56.992;24.292;2022-12-11T01:16:07;16.00;;;6.63;;
57947;SDS011;43754;56.992;24.292;2022-12-11T01:18:42;26.60;;;10.82;;
57947;SDS011;43754;56.992;24.292;2022-12-11T01:21:14;16.52;;;7.10;;
57947;SDS011;43754;56.992;24.292;2022-12-11T01:23:48;24.08;;;7.40;;
57947;SDS011;43754;56.992;24.292;2022-12-11T01:26:20;28.35;;;9.73;;
57947;SDS011;43754;56.992;24.292;2022-12-11T01:28:52;13.20;;;5.22;;
57947;SDS011;43754;56.992;24.292;2022-12-11T01:31:24;9.00;;;4.45;;
57947;SDS011;43754;56.992;24.292;2022-12-11T01:33:58;12.45;;;5.10;;
57947;SDS011;43754;56.992;24.292;2022-12-11T01:36:29;13.80;;;5.68;;
57947;SDS011;43754;56.992;24.292;2022-12-11T01:39:02;8.25;;;4.15;;
57947;SDS011;43754;56.992;24.292;2022-12-11T01:41:34;9.57;;;4.97;;
57947;SDS011;43754;56.992;24.292;2022-12-11T01:44:06;7.00;;;4.40;;
57947;SDS011;43754;56.992;24.292;2022-12-11T01:46:59;6.85;;;3.80;;
57947;SDS011;43754;56.992;24.292;2022-12-11T01:49:32;5.05;;;2.95;;
57947;SDS011;43754;56.992;24.292;2022-12-11T01:52:05;5.55;;;3.13;;
57947;SDS011;43754;56.992;24.292;2022-12-11T01:54:40;3.85;;;2.70;;
57947;SDS011;43754;56.992;24.292;2022-12-11T01:57:14;4.93;;;3.00;;
57947;SDS011;43754;56.992;24.292;2022-12-11T01:59:46;4.20;;;2.78;;
57947;SDS011;43754;56.992;24.292;2022-12-11T02:02:20;5.05;;;3.05;;
57947;SDS011;43754;56.992;24.292;2022-12-11T02:04:57;4.90;;;2.83;;
57947;SDS011;43754;56.992;24.292;2022-12-11T02:07:30;5.55;;;2.92;;
57947;SDS011;43754;56.992;24.292;2022-12-11T02:10:08;4.88;;;2.88;;
57947;SDS011;43754;56.992;24.292;2022-12-11T02:12:47;4.40;;;2.60;;
57947;SDS011;43754;56.992;24.292;2022-12-11T02:15:30;5.20;;;2.90;;
57947;SDS011;43754;56.992;24.292;2022-12-11T02:18:08;4.70;;;3.13;;
57947;SDS011;43754;56.992;24.292;2022-12-11T02:20:53;4.90;;;2.90;;
57947;SDS011;43754;56.992;24.292;2022-12-11T02:26:53;4.63;;;2.53;;
57947;SDS011;43754;56.992;24.292;2022-12-11T02:29:44;6.00;;;2.78;;
57947;SDS011;43754;56.992;24.292;2022-12-11T02:32:21;4.32;;;3.42;;
57947;SDS011;43754;56.992;24.292;2022-12-11T02:34:57;5.18;;;3.00;;
57947;SDS011;43754;56.992;24.292;2022-12-11T02:37:34;4.05;;;2.92;;
57947;SDS011;43754;56.992;24.292;2022-12-11T02:40:10;6.93;;;3.25;;
57947;SDS011;43754;56.992;24.292;2022-12-11T02:42:44;6.05;;;3.20;;
57947;SDS011;43754;56.992;24.292;2022-12-11T02:45:20;4.18;;;2.60;;
57947;SDS011;43754;56.992;24.292;2022-12-11T02:47:55;5.70;;;3.20;;
57947;SDS011;43754;56.992;24.292;2022-12-11T02:50:30;5.30;;;3.33;;
57947;SDS011;43754;56.992;24.292;2022-12-11T02:53:04;3.80;;;2.50;;
57947;SDS011;43754;56.992;24.292;2022-12-11T02:55:38;4.95;;;2.90;;
57947;SDS011;43754;56.992;24.292;2022-12-11T02:58:13;3.65;;;2.33;;
57947;SDS011;43754;56.992;24.292;2022-12-11T03:00:50;5.15;;;2.90;;
57947;SDS011;43754;56.992;24.292;2022-12-11T03:03:22;6.85;;;3.42;;
57947;SDS011;43754;56.992;24.292;2022-12-11T03:05:54;5.47;;;3.63;;
57947;SDS011;43754;56.992;24.292;2022-12-11T03:08:26;5.63;;;3.35;;
57947;SDS011;43754;56.992;24.292;2022-12-11T03:10:58;5.43;;;2.63;;
57947;SDS011;43754;56.992;24.292;2022-12-11T03:13:30;4.00;;;2.58;;
57947;SDS011;43754;56.992;24.292;2022-12-11T03:16:06;5.07;;;3.13;;
57947;SDS011;43754;56.992;24.292;2022-12-11T03:18:47;6.18;;;3.15;;
57947;SDS011;43754;56.992;24.292;2022-12-11T03:21:26;4.68;;;2.75;;
57947;SDS011;43754;56.992;24.292;2022-12-11T03:24:06;4.35;;;2.90;;
57947;SDS011;43754;56.992;24.292;2022-12-11T03:26:44;5.05;;;3.10;;
57947;SDS011;43754;56.992;24.292;2022-12-11T03:29:29;4.20;;;2.63;;
57947;SDS011;43754;56.992;24.292;2022-12-11T03:32:07;4.53;;;3.10;;
57947;SDS011;43754;56.992;24.292;2022-12-11T03:34:43;4.70;;;2.65;;
57947;SDS011;43754;56.992;24.292;2022-12-11T03:37:30;4.38;;;2.72;;
57947;SDS011;43754;56.992;24.292;2022-12-11T03:40:06;5.15;;;2.80;;
57947;SDS011;43754;56.992;24.292;2022-12-11T03:42:42;3.20;;;2.38;;
57947;SDS011;43754;56.992;24.292;2022-12-11T03:45:17;4.72;;;3.05;;
57947;SDS011;43754;56.992;24.292;2022-12-11T03:47:52;4.78;;;3.15;;
57947;SDS011;43754;56.992;24.292;2022-12-11T03:50:27;5.15;;;3.33;;
57947;SDS011;43754;56.992;24.292;2022-12-11T03:53:02;4.72;;;3.38;;
57947;SDS011;43754;56.992;24.292;2022-12-11T03:55:35;5.80;;;3.80;;
57947;SDS011;43754;56.992;24.292;2022-12-11T03:58:10;6.47;;;3.88;;
57947;SDS011;43754;56.992;24.292;2022-12-11T04:00:42;5.57;;;3.42;;
57947;SDS011;43754;56.992;24.292;2022-12-11T04:03:15;7.10;;;3.40;;
57947;SDS011;43754;56.992;24.292;2022-12-11T04:05:48;5.82;;;3.50;;
57947;SDS011;43754;56.992;24.292;2022-12-11T04:08:22;6.78;;;3.58;;
57947;SDS011;43754;56.992;24.292;2022-12-11T04:10:54;7.15;;;3.63;;
57947;SDS011;43754;56.992;24.292;2022-12-11T04:13:45;7.45;;;3.35;;
57947;SDS011;43754;56.992;24.292;2022-12-11T04:16:37;6.18;;;3.72;;
57947;SDS011;43754;56.992;24.292;2022-12-11T04:19:10;6.82;;;3.30;;
57947;SDS011;43754;56.992;24.292;2022-12-11T04:22:01;10.05;;;3.97;;
57947;SDS011;43754;56.992;24.292;2022-12-11T04:24:51;5.55;;;3.63;;
57947;SDS011;43754;56.992;24.292;2022-12-11T04:27:23;6.25;;;3.70;;
57947;SDS011;43754;56.992;24.292;2022-12-11T04:30:15;7.47;;;4.25;;
57947;SDS011;43754;56.992;24.292;2022-12-11T04:32:48;6.78;;;4.30;;
57947;SDS011;43754;56.992;24.292;2022-12-11T04:35:22;6.57;;;3.60;;
57947;SDS011;43754;56.992;24.292;2022-12-11T04:37:54;6.45;;;3.90;;
57947;SDS011;43754;56.992;24.292;2022-12-11T04:40:26;9.13;;;4.53;;
57947;SDS011;43754;56.992;24.292;2022-12-11T04:42:58;7.32;;;4.22;;
57947;SDS011;43754;56.992;24.292;2022-12-11T04:45:30;6.40;;;3.70;;
57947;SDS011;43754;56.992;24.292;2022-12-11T04:48:02;7.40;;;4.07;;
57947;SDS011;43754;56.992;24.292;2022-12-11T04:50:36;7.90;;;4.10;;
57947;SDS011;43754;56.992;24.292;2022-12-11T04:53:07;7.75;;;3.60;;
57947;SDS011;43754;56.992;24.292;2022-12-11T04:55:40;8.77;;;5.93;;
57947;SDS011;43754;56.992;24.292;2022-12-11T04:58:12;6.40;;;4.43;;
57947;SDS011;43754;56.992;24.292;2022-12-11T05:00:44;6.25;;;3.92;;
57947;SDS011;43754;56.992;24.292;2022-12-11T05:03:16;8.30;;;4.50;;
57947;SDS011;43754;56.992;24.292;2022-12-11T05:05:49;8.48;;;4.47;;
57947;SDS011;43754;56.992;24.292;2022-12-11T05:08:23;6.38;;;3.88;;
57947;SDS011;43754;56.992;24.292;2022-12-11T05:10:55;7.10;;;3.90;;
57947;SDS011;43754;56.992;24.292;2022-12-11T05:13:28;6.80;;;4.70;;
57947;SDS011;43754;56.992;24.292;2022-12-11T05:16:02;6.63;;;3.83;;
57947;SDS011;43754;56.992;24.292;2022-12-11T05:18:35;6.82;;;3.72;;
57947;SDS011;43754;56.992;24.292;2022-12-11T05:21:09;5.97;;;4.20;;
57947;SDS011;43754;56.992;24.292;2022-12-11T05:23:43;8.02;;;4.50;;
57947;SDS011;43754;56.992;24.292;2022-12-11T05:26:15;6.28;;;3.60;;
57947;SDS011;43754;56.992;24.292;2022-12-11T05:28:49;7.57;;;4.57;;
57947;SDS011;43754;56.992;24.292;2022-12-11T05:31:24;5.75;;;4.13;;
57947;SDS011;43754;56.992;24.292;2022-12-11T05:33:57;6.60;;;3.92;;
57947;SDS011;43754;56.992;24.292;2022-12-11T05:36:31;6.45;;;3.72;;
57947;SDS011;43754;56.992;24.292;2022-12-11T05:39:03;5.30;;;3.80;;
57947;SDS011;43754;56.992;24.292;2022-12-11T05:41:35;8.10;;;4.63;;
57947;SDS011;43754;56.992;24.292;2022-12-11T05:44:08;8.27;;;3.72;;
57947;SDS011;43754;56.992;24.292;2022-12-11T05:46:42;7.18;;;3.92;;
57947;SDS011;43754;56.992;24.292;2022-12-11T05:49:14;8.40;;;4.25;;
57947;SDS011;43754;56.992;24.292;2022-12-11T05:51:51;7.35;;;4.05;;
57947;SDS011;43754;56.992;24.292;2022-12-11T05:54:23;5.90;;;3.05;;
57947;SDS011;43754;56.992;24.292;2022-12-11T05:56:55;7.85;;;4.55;;
57947;SDS011;43754;56.992;24.292;2022-12-11T05:59:27;7.43;;;3.72;;
57947;SDS011;43754;56.992;24.292;2022-12-11T06:01:59;7.60;;;4.05;;
57947;SDS011;43754;56.992;24.292;2022-12-11T06:04:32;5.88;;;3.72;;
57947;SDS011;43754;56.992;24.292;2022-12-11T06:07:05;6.75;;;4.43;;
57947;SDS011;43754;56.992;24.292;2022-12-11T06:09:37;6.93;;;3.78;;
57947;SDS011;43754;56.992;24.292;2022-12-11T06:12:09;7.15;;;3.90;;
57947;SDS011;43754;56.992;24.292;2022-12-11T06:14:41;9.25;;;6.00;;
57947;SDS011;43754;56.992;24.292;2022-12-11T06:17:13;6.32;;;3.97;;
57947;SDS011;43754;56.992;24.292;2022-12-11T06:19:45;5.75;;;4.05;;
57947;SDS011;43754;56.992;24.292;2022-12-11T06:22:19;8.15;;;4.40;;
57947;SDS011;43754;56.992;24.292;2022-12-11T06:24:51;6.47;;;3.83;;
57947;SDS011;43754;56.992;24.292;2022-12-11T06:27:22;6.55;;;4.22;;
57947;SDS011;43754;56.992;24.292;2022-12-11T06:29:54;7.63;;;4.93;;
57947;SDS011;43754;56.992;24.292;2022-12-11T06:32:26;7.30;;;4.28;;
57947;SDS011;43754;56.992;24.292;2022-12-11T06:34:59;9.07;;;5.85;;
57947;SDS011;43754;56.992;24.292;2022-12-11T06:37:32;6.25;;;3.47;;
57947;SDS011;43754;56.992;24.292;2022-12-11T06:40:07;9.73;;;6.05;;
57947;SDS011;43754;56.992;24.292;2022-12-11T06:42:40;6.35;;;3.60;;
57947;SDS011;43754;56.992;24.292;2022-12-11T06:45:12;6.72;;;3.60;;
57947;SDS011;43754;56.992;24.292;2022-12-11T06:47:44;5.38;;;3.65;;
57947;SDS011;43754;56.992;24.292;2022-12-11T06:50:17;5.65;;;3.30;;
57947;SDS011;43754;56.992;24.292;2022-12-11T06:52:50;7.25;;;3.55;;
57947;SDS011;43754;56.992;24.292;2022-12-11T06:55:22;6.32;;;3.70;;
57947;SDS011;43754;56.992;24.292;2022-12-11T06:57:54;7.30;;;4.50;;
57947;SDS011;43754;56.992;24.292;2022-12-11T07:00:26;7.43;;;3.92;;
57947;SDS011;43754;56.992;24.292;2022-12-11T07:02:58;7.20;;;4.03;;
57947;SDS011;43754;56.992;24.292;2022-12-11T07:05:30;6.13;;;3.80;;
57947;SDS011;43754;56.992;24.292;2022-12-11T07:08:04;6.47;;;3.80;;
57947;SDS011;43754;56.992;24.292;2022-12-11T07:10:38;7.80;;;4.32;;
57947;SDS011;43754;56.992;24.292;2022-12-11T07:13:09;5.53;;;3.67;;
57947;SDS011;43754;56.992;24.292;2022-12-11T07:15:42;7.32;;;4.45;;
57947;SDS011;43754;56.992;24.292;2022-12-11T07:18:13;8.10;;;4.50;;
57947;SDS011;43754;56.992;24.292;2022-12-11T07:20:46;7.70;;;4.13;;
57947;SDS011;43754;56.992;24.292;2022-12-11T07:23:19;10.13;;;4.35;;
57947;SDS011;43754;56.992;24.292;2022-12-11T07:25:51;7.95;;;3.97;;
57947;SDS011;43754;56.992;24.292;2022-12-11T07:28:24;7.88;;;5.05;;
57947;SDS011;43754;56.992;24.292;2022-12-11T07:30:56;7.32;;;4.55;;
57947;SDS011;43754;56.992;24.292;2022-12-11T07:33:28;6.45;;;4.07;;
57947;SDS011;43754;56.992;24.292;2022-12-11T07:36:00;6.93;;;4.13;;
57947;SDS011;43754;56.992;24.292;2022-12-11T07:38:35;5.78;;;3.85;;
57947;SDS011;43754;56.992;24.292;2022-12-11T07:41:07;5.43;;;3.92;;
57947;SDS011;43754;56.992;24.292;2022-12-11T07:43:42;8.52;;;4.80;;
57947;SDS011;43754;56.992;24.292;2022-12-11T07:46:16;6.45;;;3.50;;
57947;SDS011;43754;56.992;24.292;2022-12-11T07:48:50;5.75;;;3.67;;
57947;SDS011;43754;56.992;24.292;2022-12-11T07:51:23;9.60;;;5.90;;
57947;SDS011;43754;56.992;24.292;2022-12-11T07:54:00;9.10;;;5.85;;
57947;SDS011;43754;56.992;24.292;2022-12-11T07:56:33;10.18;;;6.57;;
57947;SDS011;43754;56.992;24.292;2022-12-11T07:59:05;11.73;;;6.95;;
57947;SDS011;43754;56.992;24.292;2022-12-11T08:01:38;10.68;;;5.38;;
57947;SDS011;43754;56.992;24.292;2022-12-11T08:04:11;10.00;;;5.43;;
57947;SDS011;43754;56.992;24.292;2022-12-11T08:06:46;6.35;;;5.03;;
57947;SDS011;43754;56.992;24.292;2022-12-11T08:09:19;7.95;;;4.90;;
57947;SDS011;43754;56.992;24.292;2022-12-11T08:11:53;6.00;;;4.35;;
57947;SDS011;43754;56.992;24.292;2022-12-11T08:14:25;6.90;;;3.88;;
57947;SDS011;43754;56.992;24.292;2022-12-11T08:16:57;7.43;;;4.25;;
57947;SDS011;43754;56.992;24.292;2022-12-11T08:19:30;9.48;;;4.20;;
57947;SDS011;43754;56.992;24.292;2022-12-11T08:22:02;11.20;;;7.15;;
57947;SDS011;43754;56.992;24.292;2022-12-11T08:24:36;8.43;;;4.45;;
57947;SDS011;43754;56.992;24.292;2022-12-11T08:27:08;6.93;;;4.28;;
57947;SDS011;43754;56.992;24.292;2022-12-11T08:29:39;8.52;;;4.15;;
57947;SDS011;43754;56.992;24.292;2022-12-11T08:32:11;7.00;;;4.40;;
57947;SDS011;43754;56.992;24.292;2022-12-11T08:34:44;12.02;;;7.15;;
57947;SDS011;43754;56.992;24.292;2022-12-11T08:37:16;9.23;;;5.78;;
57947;SDS011;43754;56.992;24.292;2022-12-11T08:39:49;8.27;;;4.40;;
57947;SDS011;43754;56.992;24.292;2022-12-11T08:42:21;14.75;;;5.85;;
57947;SDS011;43754;56.992;24.292;2022-12-11T08:44:53;32.17;;;7.93;;
57947;SDS011;43754;56.992;24.292;2022-12-11T08:47:25;7.07;;;4.32;;
57947;SDS011;43754;56.992;24.292;2022-12-11T08:49:58;8.80;;;5.85;;
57947;SDS011;43754;56.992;24.292;2022-12-11T08:52:30;6.80;;;4.60;;
57947;SDS011;43754;56.992;24.292;2022-12-11T08:55:03;8.15;;;5.07;;
57947;SDS011;43754;56.992;24.292;2022-12-11T08:57:36;8.25;;;4.70;;
57947;SDS011;43754;56.992;24.292;2022-12-11T09:00:10;18.70;;;8.23;;
57947;SDS011;43754;56.992;24.292;2022-12-11T09:02:44;8.80;;;5.43;;
57947;SDS011;43754;56.992;24.292;2022-12-11T09:05:16;9.43;;;5.28;;
57947;SDS011;43754;56.992;24.292;2022-12-11T09:07:48;9.10;;;5.53;;
57947;SDS011;43754;56.992;24.292;2022-12-11T09:10:22;12.50;;;7.50;;
57947;SDS011;43754;56.992;24.292;2022-12-11T09:12:54;12.82;;;10.18;;
57947;SDS011;43754;56.992;24.292;2022-12-11T09:15:26;13.00;;;7.72;;
57947;SDS011;43754;56.992;24.292;2022-12-11T09:17:58;10.65;;;6.63;;
57947;SDS011;43754;56.992;24.292;2022-12-11T09:20:30;11.57;;;6.78;;
57947;SDS011;43754;56.992;24.292;2022-12-11T09:23:02;16.20;;;9.18;;
57947;SDS011;43754;56.992;24.292;2022-12-11T09:25:38;18.00;;;8.98;;
57947;SDS011;43754;56.992;24.292;2022-12-11T09:28:10;14.65;;;9.45;;
57947;SDS011;43754;56.992;24.292;2022-12-11T09:30:42;13.48;;;7.53;;
57947;SDS011;43754;56.992;24.292;2022-12-11T09:33:14;9.80;;;7.03;;
57947;SDS011;43754;56.992;24.292;2022-12-11T09:35:55;12.20;;;6.80;;
57947;SDS011;43754;56.992;24.292;2022-12-11T09:38:27;20.15;;;11.05;;
57947;SDS011;43754;56.992;24.292;2022-12-11T09:41:01;19.85;;;10.57;;
57947;SDS011;43754;56.992;24.292;2022-12-11T09:43:47;23.30;;;9.43;;
57947;SDS011;43754;56.992;24.292;2022-12-11T09:46:24;15.65;;;10.13;;
57947;SDS011;43754;56.992;24.292;2022-12-11T09:49:04;9.87;;;6.33;;
57947;SDS011;43754;56.992;24.292;2022-12-11T09:51:45;10.43;;;6.13;;
57947;SDS011;43754;56.992;24.292;2022-12-11T09:54:21;12.43;;;9.02;;
57947;SDS011;43754;56.992;24.292;2022-12-11T09:56:57;8.35;;;5.70;;
57947;SDS011;43754;56.992;24.292;2022-12-11T09:59:35;10.10;;;6.20;;
57947;SDS011;43754;56.992;24.292;2022-12-11T10:02:18;12.43;;;9.52;;
57947;SDS011;43754;56.992;24.292;2022-12-11T10:05:03;10.40;;;6.22;;
57947;SDS011;43754;56.992;24.292;2022-12-11T10:07:47;8.90;;;5.80;;
57947;SDS011;43754;56.992;24.292;2022-12-11T10:10:25;9.82;;;5.97;;
57947;SDS011;43754;56.992;24.292;2022-12-11T10:13:12;12.05;;;6.78;;
57947;SDS011;43754;56.992;24.292;2022-12-11T10:15:56;9.40;;;5.90;;
57947;SDS011;43754;56.992;24.292;2022-12-11T10:18:32;11.25;;;6.35;;
57947;SDS011;43754;56.992;24.292;2022-12-11T10:21:04;8.85;;;6.18;;
57947;SDS011;43754;56.992;24.292;2022-12-11T10:23:39;10.40;;;6.13;;
57947;SDS011;43754;56.992;24.292;2022-12-11T10:26:17;14.40;;;6.78;;
57947;SDS011;43754;56.992;24.292;2022-12-11T10:28:53;8.43;;;5.05;;
57947;SDS011;43754;56.992;24.292;2022-12-11T10:31:30;13.88;;;6.53;;
57947;SDS011;43754;56.992;24.292;2022-12-11T10:34:10;19.45;;;7.82;;
57947;SDS011;43754;56.992;24.292;2022-12-11T10:36:44;30.33;;;8.77;;
57947;SDS011;43754;56.992;24.292;2022-12-11T10:39:16;7.70;;;4.82;;
57947;SDS011;43754;56.992;24.292;2022-12-11T10:41:50;7.93;;;6.55;;
57947;SDS011;43754;56.992;24.292;2022-12-11T10:44:26;8.00;;;4.90;;
57947;SDS011;43754;56.992;24.292;2022-12-11T10:47:01;16.48;;;9.85;;
57947;SDS011;43754;56.992;24.292;2022-12-11T10:49:34;41.75;;;16.90;;
57947;SDS011;43754;56.992;24.292;2022-12-11T10:52:11;13.52;;;7.07;;
57947;SDS011;43754;56.992;24.292;2022-12-11T10:54:54;12.57;;;5.40;;
57947;SDS011;43754;56.992;24.292;2022-12-11T10:57:30;8.75;;;5.22;;
57947;SDS011;43754;56.992;24.292;2022-12-11T11:00:06;22.48;;;10.70;;
57947;SDS011;43754;56.992;24.292;2022-12-11T11:02:59;10.10;;;5.55;;
57947;SDS011;43754;56.992;24.292;2022-12-11T11:05:33;10.90;;;6.25;;
57947;SDS011;43754;56.992;24.292;2022-12-11T11:08:10;17.17;;;15.48;;
57947;SDS011;43754;56.992;24.292;2022-12-11T11:10:48;10.30;;;5.78;;
57947;SDS011;43754;56.992;24.292;2022-12-11T11:13:23;10.23;;;5.85;;
57947;SDS011;43754;56.992;24.292;2022-12-11T11:16:01;8.52;;;4.85;;
57947;SDS011;43754;56.992;24.292;2022-12-11T11:18:37;25.48;;;11.00;;
57947;SDS011;43754;56.992;24.292;2022-12-11T11:21:14;9.85;;;6.00;;
57947;SDS011;43754;56.992;24.292;2022-12-11T11:23:47;12.15;;;6.85;;
57947;SDS011;43754;56.992;24.292;2022-12-11T11:26:24;11.65;;;6.35;;
57947;SDS011;43754;56.992;24.292;2022-12-11T11:29:21;8.15;;;4.93;;
57947;SDS011;43754;56.992;24.292;2022-12-11T11:32:00;9.00;;;5.30;;
57947;SDS011;43754;56.992;24.292;2022-12-11T11:34:45;14.80;;;7.60;;
57947;SDS011;43754;56.992;24.292;2022-12-11T11:37:22;15.40;;;7.40;;
57947;SDS011;43754;56.992;24.292;2022-12-11T11:39:57;10.50;;;5.13;;
57947;SDS011;43754;56.992;24.292;2022-12-11T11:45:13;13.65;;;6.90;;
57947;SDS011;43754;56.992;24.292;2022-12-11T11:47:51;10.70;;;5.28;;
57947;SDS011;43754;56.992;24.292;2022-12-11T11:50:33;9.98;;;5.53;;
57947;SDS011;43754;56.992;24.292;2022-12-11T11:53:08;11.93;;;6.82;;
57947;SDS011;43754;56.992;24.292;2022-12-11T11:55:45;11.77;;;6.28;;
57947;SDS011;43754;56.992;24.292;2022-12-11T11:58:26;9.70;;;5.72;;
57947;SDS011;43754;56.992;24.292;2022-12-11T12:01:08;13.25;;;5.70;;
57947;SDS011;43754;56.992;24.292;2022-12-11T12:03:46;11.50;;;5.82;;
57947;SDS011;43754;56.992;24.292;2022-12-11T12:06:24;11.18;;;6.60;;
57947;SDS011;43754;56.992;24.292;2022-12-11T12:09:04;9.80;;;5.18;;
57947;SDS011;43754;56.992;24.292;2022-12-11T12:11:48;11.88;;;5.90;;
57947;SDS011;43754;56.992;24.292;2022-12-11T12:14:28;10.48;;;6.38;;
57947;SDS011;43754;56.992;24.292;2022-12-11T12:17:23;10.93;;;7.25;;
57947;SDS011;43754;56.992;24.292;2022-12-11T12:20:10;18.45;;;7.82;;
57947;SDS011;43754;56.992;24.292;2022-12-11T12:22:51;11.23;;;6.75;;
57947;SDS011;43754;56.992;24.292;2022-12-11T12:25:33;15.50;;;9.57;;
57947;SDS011;43754;56.992;24.292;2022-12-11T12:28:13;9.27;;;5.25;;
57947;SDS011;43754;56.992;24.292;2022-12-11T12:30:56;21.67;;;12.13;;
57947;SDS011;43754;56.992;24.292;2022-12-11T12:33:43;11.15;;;7.63;;
57947;SDS011;43754;56.992;24.292;2022-12-11T12:36:25;9.70;;;5.90;;
57947;SDS011;43754;56.992;24.292;2022-12-11T12:39:05;13.25;;;10.00;;
57947;SDS011;43754;56.992;24.292;2022-12-11T12:41:48;11.50;;;6.63;;
57947;SDS011;43754;56.992;24.292;2022-12-11T12:44:31;26.45;;;14.20;;
57947;SDS011;43754;56.992;24.292;2022-12-11T12:47:09;17.55;;;12.18;;
57947;SDS011;43754;56.992;24.292;2022-12-11T12:49:44;13.32;;;7.40;;
57947;SDS011;43754;56.992;24.292;2022-12-11T12:52:20;11.38;;;6.30;;
57947;SDS011;43754;56.992;24.292;2022-12-11T12:54:57;9.50;;;5.95;;
57947;SDS011;43754;56.992;24.292;2022-12-11T12:57:47;9.85;;;6.05;;
57947;SDS011;43754;56.992;24.292;2022-12-11T13:00:26;8.63;;;5.30;;
57947;SDS011;43754;56.992;24.292;2022-12-11T13:03:11;13.95;;;6.25;;
57947;SDS011;43754;56.992;24.292;2022-12-11T13:05:55;49.92;;;11.88;;
57947;SDS011;43754;56.992;24.292;2022-12-11T13:08:33;25.13;;;8.70;;
57947;SDS011;43754;56.992;24.292;2022-12-11T13:13:44;22.65;;;14.60;;
57947;SDS011;43754;56.992;24.292;2022-12-11T13:16:25;12.55;;;6.45;;
57947;SDS011;43754;56.992;24.292;2022-12-11T13:19:15;36.90;;;21.08;;
57947;SDS011;43754;56.992;24.292;2022-12-11T13:21:53;45.15;;;23.83;;
57947;SDS011;43754;56.992;24.292;2022-12-11T13:24:28;13.73;;;6.32;;
57947;SDS011;43754;56.992;24.292;2022-12-11T13:27:08;10.32;;;5.90;;
57947;SDS011;43754;56.992;24.292;2022-12-11T13:29:41;15.80;;;7.07;;
57947;SDS011;43754;56.992;24.292;2022-12-11T13:32:20;17.10;;;7.47;;
57947;SDS011;43754;56.992;24.292;2022-12-11T13:34:55;13.88;;;10.20;;
57947;SDS011;43754;56.992;24.292;2022-12-11T13:37:29;17.42;;;8.98;;
57947;SDS011;43754;56.992;24.292;2022-12-11T13:40:07;11.85;;;7.70;;
57947;SDS011;43754;56.992;24.292;2022-12-11T13:42:48;12.10;;;6.82;;
57947;SDS011;43754;56.992;24.292;2022-12-11T13:45:25;12.65;;;6.65;;
57947;SDS011;43754;56.992;24.292;2022-12-11T13:47:59;14.43;;;7.70;;
57947;SDS011;43754;56.992;24.292;2022-12-11T13:50:32;13.55;;;7.07;;
57947;SDS011;43754;56.992;24.292;2022-12-11T13:53:05;13.45;;;6.53;;
57947;SDS011;43754;56.992;24.292;2022-12-11T13:55:39;14.10;;;7.38;;
57947;SDS011;43754;56.992;24.292;2022-12-11T13:58:15;12.90;;;6.80;;
57947;SDS011;43754;56.992;24.292;2022-12-11T14:00:58;10.18;;;5.93;;
57947;SDS011;43754;56.992;24.292;2022-12-11T14:03:37;20.85;;;9.65;;
57947;SDS011;43754;56.992;24.292;2022-12-11T14:06:10;13.27;;;7.32;;
57947;SDS011;43754;56.992;24.292;2022-12-11T14:08:50;23.20;;;9.80;;
57947;SDS011;43754;56.992;24.292;2022-12-11T14:11:26;11.40;;;6.25;;
57947;SDS011;43754;56.992;24.292;2022-12-11T14:14:02;11.50;;;6.97;;
57947;SDS011;43754;56.992;24.292;2022-12-11T14:16:37;11.18;;;6.63;;
57947;SDS011;43754;56.992;24.292;2022-12-11T14:19:13;15.65;;;8.88;;
57947;SDS011;43754;56.992;24.292;2022-12-11T14:21:54;18.65;;;9.77;;
57947;SDS011;43754;56.992;24.292;2022-12-11T14:24:27;12.02;;;6.45;;
57947;SDS011;43754;56.992;24.292;2022-12-11T14:27:01;29.33;;;10.65;;
57947;SDS011;43754;56.992;24.292;2022-12-11T14:29:35;10.10;;;6.40;;
57947;SDS011;43754;56.992;24.292;2022-12-11T14:32:07;22.50;;;9.60;;
57947;SDS011;43754;56.992;24.292;2022-12-11T14:34:41;13.57;;;7.63;;
57947;SDS011;43754;56.992;24.292;2022-12-11T14:37:16;11.35;;;6.13;;
57947;SDS011;43754;56.992;24.292;2022-12-11T14:39:55;10.18;;;6.25;;
57947;SDS011;43754;56.992;24.292;2022-12-11T14:42:31;10.77;;;6.70;;
57947;SDS011;43754;56.992;24.292;2022-12-11T14:45:11;10.68;;;6.38;;
57947;SDS011;43754;56.992;24.292;2022-12-11T14:47:49;14.07;;;6.90;;
57947;SDS011;43754;56.992;24.292;2022-12-11T14:50:25;12.32;;;6.47;;
57947;SDS011;43754;56.992;24.292;2022-12-11T14:53:02;12.57;;;6.90;;
57947;SDS011;43754;56.992;24.292;2022-12-11T14:55:38;11.98;;;6.38;;
57947;SDS011;43754;56.992;24.292;2022-12-11T14:58:14;17.67;;;7.65;;
57947;SDS011;43754;56.992;24.292;2022-12-11T15:00:56;12.95;;;6.95;;
57947;SDS011;43754;56.992;24.292;2022-12-11T15:03:30;12.90;;;6.38;;
57947;SDS011;43754;56.992;24.292;2022-12-11T15:06:19;11.68;;;6.93;;
57947;SDS011;43754;56.992;24.292;2022-12-11T15:08:56;10.30;;;6.65;;
57947;SDS011;43754;56.992;24.292;2022-12-11T15:11:29;11.75;;;6.85;;
57947;SDS011;43754;56.992;24.292;2022-12-11T15:14:04;9.70;;;6.15;;
57947;SDS011;43754;56.992;24.292;2022-12-11T15:16:40;12.82;;;7.10;;
57947;SDS011;43754;56.992;24.292;2022-12-11T15:19:17;10.23;;;5.90;;
57947;SDS011;43754;56.992;24.292;2022-12-11T15:21:53;11.80;;;7.13;;
57947;SDS011;43754;56.992;24.292;2022-12-11T15:24:33;12.00;;;6.32;;
57947;SDS011;43754;56.992;24.292;2022-12-11T15:27:15;11.85;;;6.65;;